Time;durP1;ratioP1;P1;durP2;ratioP2;P2;SDS_P1;SDS_P2;PMS_P1;PMS_P2;Temp;Humidity;BMP_temperature;BMP_pressure;BME280_temperature;BME280_humidity;BME280_pressure;Samples;Min_cycle;Max_cycle;Signal;HPM_P1;HPM_P2
2020/12/06 00:01:48;;;;;;;15.85;8.78;;;;;;;-3.84;78.48;102254.91;1798498;79;21356;-72
2020/12/06 00:04:20;;;;;;;15.60;8.53;;;;;;;-3.87;78.47;102259.55;1783522;79;21183;-72
2020/12/06 00:06:48;;;;;;;14.40;7.58;;;;;;;-3.92;78.40;102260.37;1787040;79;21459;-71
2020/12/06 00:09:17;;;;;;;14.98;8.58;;;;;;;-3.95;78.37;102255.39;1783529;78;21139;-71
2020/12/06 00:11:44;;;;;;;14.60;7.83;;;;;;;-3.97;78.29;102259.44;1794511;79;21159;-71
2020/12/06 00:14:12;;;;;;;15.48;8.43;;;;;;;-4.01;78.12;102256.23;1787165;79;21794;-71
2020/12/06 00:16:39;;;;;;;16.15;9.55;;;;;;;-4.06;78.02;102253.14;1795828;79;21721;-71
2020/12/06 00:19:07;;;;;;;16.87;8.53;;;;;;;-4.10;78.00;102262.17;1802506;79;21647;-71
2020/12/06 00:21:35;;;;;;;15.55;7.95;;;;;;;-4.13;77.96;102259.80;1799216;79;21155;-72
2020/12/06 00:24:05;;;;;;;14.07;7.37;;;;;;;-4.14;77.90;102262.53;1785697;79;21135;-71
2020/12/06 00:26:32;;;;;;;16.57;8.55;;;;;;;-4.15;77.87;102268.20;1788623;79;21794;-71
2020/12/06 00:29:00;;;;;;;16.50;8.48;;;;;;;-4.17;77.83;102262.30;1794897;79;21199;-71
2020/12/06 00:31:28;;;;;;;14.23;8.28;;;;;;;-4.19;77.63;102264.66;1791467;77;21230;-72
2020/12/06 00:33:55;;;;;;;13.08;7.55;;;;;;;-4.22;77.60;102272.23;1797213;78;21267;-72
2020/12/06 00:36:22;;;;;;;15.78;8.80;;;;;;;-4.27;77.52;102267.86;1800332;79;21163;-71
2020/12/06 00:38:50;;;;;;;14.83;7.78;;;;;;;-4.29;77.48;102269.75;1798229;79;21255;-71
2020/12/06 00:41:18;;;;;;;14.35;8.00;;;;;;;-4.31;77.47;102275.55;1799332;79;21199;-71
2020/12/06 00:43:45;;;;;;;11.22;6.97;;;;;;;-4.35;77.41;102274.13;1798599;79;21234;-71
2020/12/06 00:46:21;;;;;;;15.43;8.78;;;;;;;-4.42;77.39;102277.67;1788545;79;21401;-70
2020/12/06 00:48:49;;;;;;;14.90;8.75;;;;;;;-4.46;77.39;102273.64;1755561;79;21195;-69
2020/12/06 00:51:16;;;;;;;14.78;8.28;;;;;;;-4.45;77.39;102284.91;1804616;77;21445;-71
2020/12/06 00:53:44;;;;;;;15.80;7.60;;;;;;;-4.52;77.30;102268.89;1790655;77;21182;-71
2020/12/06 00:56:19;;;;;;;15.53;7.25;;;;;;;-4.52;77.30;102268.89;1795834;79;21186;-72
2020/12/06 00:58:48;;;;;;;11.00;6.45;;;;;;;-4.52;77.28;102281.93;1799804;77;21186;-72
2020/12/06 01:01:16;;;;;;;13.70;7.00;;;;;;;-4.54;77.22;102284.67;1793246;79;21202;-70
2020/12/06 01:03:43;;;;;;;13.00;7.28;;;;;;;-4.57;77.28;102278.86;1798047;79;21214;-71
2020/12/06 01:06:19;;;;;;;11.90;6.92;;;;;;;-4.63;77.20;102267.10;1809696;79;21162;-71
2020/12/06 01:08:47;;;;;;;12.10;6.62;;;;;;;-4.60;77.20;102275.17;1804578;79;21171;-71
2020/12/06 01:11:15;;;;;;;14.55;7.72;;;;;;;-4.65;77.11;102274.20;1796746;79;21135;-71
2020/12/06 01:13:43;;;;;;;16.00;7.37;;;;;;;-4.72;77.03;102270.39;1803281;79;21166;-71
2020/12/06 01:16:14;;;;;;;16.80;7.97;;;;;;;-4.72;77.03;102270.39;1788067;77;21258;-69
2020/12/06 01:18:41;;;;;;;15.90;8.25;;;;;;;-4.74;77.07;102269.22;1806108;78;21159;-71
2020/12/06 01:21:10;;;;;;;13.05;6.37;;;;;;;-4.74;77.06;102266.61;1802019;79;21206;-71
2020/12/06 01:23:37;;;;;;;12.07;6.62;;;;;;;-4.78;76.92;102270.37;1795152;79;21914;-71
2020/12/06 01:26:05;;;;;;;11.83;6.65;;;;;;;-4.84;76.91;102273.91;1784987;79;21119;-70
2020/12/06 01:28:32;;;;;;;14.07;6.97;;;;;;;-4.84;76.91;102273.91;1810334;77;21315;-69
2020/12/06 01:31:00;;;;;;;15.83;8.23;;;;;;;-4.92;76.92;102278.87;1797883;79;21284;-70
2020/12/06 01:33:28;;;;;;;10.88;6.17;;;;;;;-4.92;76.92;102278.87;1801187;79;21191;-71
2020/12/06 01:35:55;;;;;;;15.60;7.62;;;;;;;-4.97;76.56;102276.58;1789181;77;21153;-72
2020/12/06 01:38:24;;;;;;;12.37;7.05;;;;;;;-4.96;76.87;102281.70;1805227;77;21148;-71
2020/12/06 01:40:51;;;;;;;10.25;5.75;;;;;;;-4.96;76.87;102281.70;1802797;79;21223;-71
2020/12/06 01:43:18;;;;;;;12.45;6.05;;;;;;;-5.00;76.79;102280.71;1783009;79;21186;-71
2020/12/06 01:45:46;;;;;;;12.63;6.70;;;;;;;-5.07;76.81;102280.81;1792361;79;21183;-71
2020/12/06 01:48:14;;;;;;;13.25;7.33;;;;;;;-5.07;76.81;102280.81;1804918;79;21194;-72
2020/12/06 01:50:41;;;;;;;11.68;6.58;;;;;;;-5.07;76.83;102278.20;1793747;78;21188;-71
2020/12/06 01:53:10;;;;;;;14.15;6.95;;;;;;;-5.11;76.79;102273.69;1790239;79;21336;-72
2020/12/06 01:55:39;;;;;;;12.50;6.95;;;;;;;-5.11;76.78;102278.08;1789195;79;21163;-70
2020/12/06 01:58:09;;;;;;;13.18;7.20;;;;;;;-5.12;76.80;102283.77;1806407;79;21186;-72
2020/12/06 02:00:37;;;;;;;13.15;6.58;;;;;;;-5.14;76.75;102283.51;1804346;77;21174;-71
2020/12/06 02:03:05;;;;;;;11.45;5.40;;;;;;;-5.16;76.74;102282.33;1795385;79;21166;-72
2020/12/06 02:05:34;;;;;;;13.88;6.78;;;;;;;-5.19;76.75;102281.25;1800872;79;21187;-72
2020/12/06 02:08:02;;;;;;;12.07;5.97;;;;;;;-5.22;76.76;102284.91;1798798;79;21405;-73
2020/12/06 02:10:32;;;;;;;14.68;7.08;;;;;;;-5.26;76.77;102278.73;1802693;77;21171;-73
2020/12/06 02:12:59;;;;;;;12.78;6.47;;;;;;;-5.29;76.79;102282.39;1807290;79;21167;-73
2020/12/06 02:15:27;;;;;;;11.57;5.50;;;;;;;-5.30;76.77;102283.30;1807711;79;21463;-72
2020/12/06 02:17:55;;;;;;;11.93;6.83;;;;;;;-5.31;76.70;102279.52;1789578;79;21336;-72
2020/12/06 02:20:22;;;;;;;13.10;5.60;;;;;;;-5.33;76.62;102282.70;1807939;79;21255;-72
2020/12/06 02:22:50;;;;;;;13.32;6.15;;;;;;;-5.37;76.58;102282.56;1795726;79;21658;-72
2020/12/06 02:25:17;;;;;;;12.10;5.75;;;;;;;-5.42;76.56;102291.55;1798619;79;21167;-73
2020/12/06 02:27:44;;;;;;;10.35;5.75;;;;;;;-5.43;76.51;102295.10;1808088;78;21155;-73
2020/12/06 02:30:12;;;;;;;13.48;6.15;;;;;;;-5.47;76.46;102294.94;1792744;79;21379;-71
2020/12/06 02:32:39;;;;;;;13.20;6.67;;;;;;;-5.49;76.42;102300.74;1792918;79;21179;-71
2020/12/06 02:35:07;;;;;;;11.05;5.87;;;;;;;-5.53;76.37;102300.58;1771721;78;21127;-72
2020/12/06 02:37:34;;;;;;;9.68;5.20;;;;;;;-5.56;76.30;102304.73;1785601;79;21175;-73
2020/12/06 02:40:02;;;;;;;9.90;5.08;;;;;;;-5.60;76.27;102298.05;1790361;79;21464;-72
2020/12/06 02:42:30;;;;;;;8.23;5.08;;;;;;;-5.61;76.25;102297.70;1800309;79;21191;-71
2020/12/06 02:44:59;;;;;;;12.60;5.28;;;;;;;-5.64;76.17;102297.91;1797657;78;21167;-71
2020/12/06 02:47:27;;;;;;;12.37;6.12;;;;;;;-5.69;76.14;102293.52;1805461;79;21202;-71
2020/12/06 02:49:54;;;;;;;9.15;5.50;;;;;;;-5.73;76.13;102295.95;1797208;79;21167;-71
2020/12/06 02:52:22;;;;;;;10.28;4.83;;;;;;;-5.74;76.11;102298.20;1793898;77;21163;-71
2020/12/06 02:54:49;;;;;;;12.53;5.78;;;;;;;-5.76;76.04;102289.22;1797143;79;21789;-73
2020/12/06 02:57:17;;;;;;;8.53;4.90;;;;;;;-5.76;76.02;102297.47;1813047;77;21615;-72
2020/12/06 02:59:44;;;;;;;10.38;5.25;;;;;;;-5.74;76.00;102295.59;1797898;79;22563;-71
2020/12/06 03:02:12;;;;;;;8.95;5.08;;;;;;;-5.75;75.90;102302.58;1807964;77;21694;-72
2020/12/06 03:04:39;;;;;;;7.78;4.35;;;;;;;-5.75;75.80;102300.45;1798349;79;21480;-72
2020/12/06 03:07:07;;;;;;;9.90;4.97;;;;;;;-5.77;75.80;102306.22;1803873;78;21795;-72
2020/12/06 03:09:36;;;;;;;10.30;6.03;;;;;;;-5.82;75.64;102307.00;1790852;78;21210;-72
2020/12/06 03:12:03;;;;;;;12.13;5.95;;;;;;;-5.83;75.68;102309.25;1791410;79;21166;-73
2020/12/06 03:14:31;;;;;;;10.00;4.80;;;;;;;-5.83;75.63;102307.47;1799544;79;21159;-73
2020/12/06 03:17:00;;;;;;;10.25;5.60;;;;;;;-5.83;75.56;102315.75;1798279;77;21179;-73
2020/12/06 03:19:28;;;;;;;9.03;4.87;;;;;;;-5.86;75.56;102311.59;1813363;77;21787;-73
2020/12/06 03:21:56;;;;;;;10.30;4.90;;;;;;;-5.85;75.54;102321.55;1796814;77;21143;-73
2020/12/06 03:24:24;;;;;;;11.85;5.55;;;;;;;-5.88;75.52;102309.58;1799592;77;21115;-72
2020/12/06 03:26:51;;;;;;;11.33;5.70;;;;;;;-5.87;75.50;102315.61;1807986;77;21646;-71
2020/12/06 03:29:19;;;;;;;11.15;5.83;;;;;;;-5.84;75.42;102304.99;1796778;79;21202;-71
2020/12/06 03:31:46;;;;;;;8.38;4.80;;;;;;;-5.86;75.34;102314.66;1801644;77;22235;-71
2020/12/06 03:34:14;;;;;;;10.30;5.25;;;;;;;-5.86;75.28;102314.66;1798020;79;21142;-71
2020/12/06 03:36:41;;;;;;;10.80;5.80;;;;;;;-5.90;75.19;102322.67;1803439;77;21159;-71
2020/12/06 03:39:08;;;;;;;10.03;5.62;;;;;;;-5.95;75.21;102326.12;1801565;77;21583;-71
2020/12/06 03:41:36;;;;;;;9.78;5.05;;;;;;;-5.99;75.26;102318.16;1809004;77;21168;-71
2020/12/06 03:44:03;;;;;;;9.73;5.53;;;;;;;-6.00;75.26;102328.19;1804286;77;21126;-71
2020/12/06 03:46:31;;;;;;;10.08;5.55;;;;;;;-6.02;75.25;102326.18;1805621;77;21151;-72
2020/12/06 03:48:58;;;;;;;10.00;5.15;;;;;;;-6.03;75.21;102332.30;1816818;77;21106;-70
2020/12/06 03:51:26;;;;;;;8.50;4.37;;;;;;;-6.02;75.20;102332.69;1802703;77;21254;-71
2020/12/06 03:53:54;;;;;;;10.25;5.12;;;;;;;-6.03;75.12;102333.59;1798414;77;21063;-71
2020/12/06 03:56:21;;;;;;;7.72;4.20;;;;;;;-6.04;75.11;102325.44;1798014;77;22496;-71
2020/12/06 03:58:49;;;;;;;11.55;4.45;;;;;;;-6.04;75.02;102329.34;1795476;77;21124;-71
2020/12/06 04:01:16;;;;;;;9.40;4.53;;;;;;;-6.06;75.01;102324.70;1810223;77;21222;-72
2020/12/06 04:03:47;;;;;;;10.05;5.67;;;;;;;-6.07;75.00;102332.15;1778426;79;21633;-71
2020/12/06 04:06:14;;;;;;;10.05;5.58;;;;;;;-6.09;74.99;102329.28;1804029;77;21472;-71
2020/12/06 04:08:42;;;;;;;10.93;5.30;;;;;;;-6.14;74.90;102328.31;1799274;77;21811;-70
2020/12/06 04:11:10;;;;;;;9.85;5.53;;;;;;;-6.19;74.94;102327.77;1817112;77;21206;-72
2020/12/06 04:13:37;;;;;;;9.45;5.17;;;;;;;-6.21;74.98;102336.99;1803595;77;21183;-72
2020/12/06 04:16:05;;;;;;;11.08;5.35;;;;;;;-6.23;74.97;102338.86;1814499;77;21254;-71
2020/12/06 04:18:32;;;;;;;11.83;5.60;;;;;;;-6.25;75.00;102345.09;1803044;77;21232;-71
2020/12/06 04:21:00;;;;;;;9.58;5.10;;;;;;;-6.27;75.04;102345.67;1802617;77;21364;-71
2020/12/06 04:23:28;;;;;;;11.15;4.70;;;;;;;-6.26;75.04;102349.45;1814879;77;21123;-71
2020/12/06 04:25:56;;;;;;;8.90;4.10;;;;;;;-6.25;75.04;102348.55;1808794;77;21142;-72
2020/12/06 04:28:23;;;;;;;10.00;4.97;;;;;;;-6.24;74.99;102341.57;1801805;77;21097;-72
2020/12/06 04:30:51;;;;;;;11.33;4.92;;;;;;;-6.24;74.98;102346.30;1813720;77;21147;-72
2020/12/06 04:33:18;;;;;;;10.78;4.50;;;;;;;-6.25;74.95;102342.48;1805233;77;21804;-70
2020/12/06 04:35:46;;;;;;;8.90;4.60;;;;;;;-6.26;74.93;102351.23;1833226;77;21215;-71
2020/12/06 04:38:13;;;;;;;13.13;6.60;;;;;;;-6.27;74.91;102359.98;1810560;77;21209;-71
2020/12/06 04:40:41;;;;;;;9.38;4.60;;;;;;;-6.28;74.90;102361.75;1802982;79;21666;-71
2020/12/06 04:43:09;;;;;;;7.72;4.28;;;;;;;-6.29;74.88;102362.66;1806999;77;21152;-71
2020/12/06 04:45:36;;;;;;;9.23;5.03;;;;;;;-6.29;74.89;102355.34;1819459;77;21820;-71
2020/12/06 04:48:06;;;;;;;11.05;4.72;;;;;;;-6.30;74.90;102364.08;1807769;79;21119;-71
2020/12/06 04:50:43;;;;;;;10.77;5.90;;;;;;;-6.25;74.99;102358.09;1820071;76;27869;-72
2020/12/06 04:53:15;;;;;;;9.58;5.20;;;;;;;-6.23;74.88;102360.96;1846493;77;21160;-72
2020/12/06 04:55:46;;;;;;;8.50;4.12;;;;;;;-6.23;74.80;102361.43;1803319;78;22656;-72
2020/12/06 04:58:27;;;;;;;10.40;5.60;;;;;;;-6.18;74.80;102359.37;1843283;77;22686;-72
2020/12/06 05:00:55;;;;;;;9.90;4.55;;;;;;;-6.25;74.73;102360.25;1810816;78;21183;-72
2020/12/06 05:03:24;;;;;;;8.95;5.12;;;;;;;-6.28;74.74;102360.45;1845748;76;21348;-73
2020/12/06 05:05:52;;;;;;;10.70;5.45;;;;;;;-6.32;74.70;102355.54;1859780;77;21103;-73
2020/12/06 05:08:20;;;;;;;10.80;5.35;;;;;;;-6.33;74.71;102361.21;1808458;78;21215;-73
2020/12/06 05:10:48;;;;;;;10.75;5.20;;;;;;;-6.36;74.72;102361.41;1815219;78;21097;-73
2020/12/06 05:13:17;;;;;;;9.55;4.65;;;;;;;-6.40;74.72;102365.98;1811816;78;21552;-73
2020/12/06 05:15:46;;;;;;;9.13;4.72;;;;;;;-6.42;74.67;102361.34;1850661;77;21575;-73
2020/12/06 05:18:14;;;;;;;8.20;3.80;;;;;;;-6.44;74.63;102361.93;1831050;77;21191;-72
2020/12/06 05:20:41;;;;;;;8.55;4.22;;;;;;;-6.48;74.59;102358.32;1815698;77;21118;-72
2020/12/06 05:23:09;;;;;;;11.33;5.10;;;;;;;-6.50;74.62;102363.63;1798133;78;21259;-72
2020/12/06 05:25:37;;;;;;;10.28;5.37;;;;;;;-6.50;74.60;102375.33;1767365;78;21120;-72
2020/12/06 05:28:06;;;;;;;9.55;5.05;;;;;;;-6.49;74.55;102370.96;1816278;78;21587;-72
2020/12/06 05:30:33;;;;;;;10.65;5.25;;;;;;;-6.53;74.57;102376.00;1756095;77;21144;-72
2020/12/06 05:33:00;;;;;;;11.90;5.25;;;;;;;-6.55;74.52;102374.78;1803767;77;21061;-72
2020/12/06 05:35:28;;;;;;;9.80;4.95;;;;;;;-6.57;74.58;102375.37;1803411;78;21179;-72
2020/12/06 05:37:56;;;;;;;7.87;3.95;;;;;;;-6.57;74.61;102371.95;1812245;78;21160;-72
2020/12/06 05:40:23;;;;;;;10.85;5.20;;;;;;;-6.55;74.64;102374.78;1802012;78;21378;-72
2020/12/06 05:42:50;;;;;;;11.45;5.37;;;;;;;-6.57;74.56;102383.17;1806975;78;21183;-72
2020/12/06 05:45:19;;;;;;;8.73;4.85;;;;;;;-6.56;74.57;102380.09;1818332;77;21097;-72
2020/12/06 05:47:47;;;;;;;9.23;4.72;;;;;;;-6.56;74.49;102380.92;1796852;77;21685;-73
2020/12/06 05:50:16;;;;;;;10.43;4.75;;;;;;;-6.56;74.38;102384.00;1824165;77;21666;-71
2020/12/06 05:52:43;;;;;;;9.98;5.05;;;;;;;-6.58;74.33;102384.55;1816551;78;21804;-72
2020/12/06 05:55:11;;;;;;;9.75;4.97;;;;;;;-6.58;74.32;102382.81;1802682;78;21065;-71
2020/12/06 05:57:40;;;;;;;10.35;5.60;;;;;;;-6.57;74.19;102388.38;1838007;77;21054;-72
2020/12/06 06:00:08;;;;;;;10.68;5.35;;;;;;;-6.57;74.04;102384.94;1835348;77;21153;-72
2020/12/06 06:02:35;;;;;;;11.20;4.72;;;;;;;-6.56;73.98;102387.90;1818037;77;21132;-73
2020/12/06 06:05:04;;;;;;;9.05;4.10;;;;;;;-6.54;73.99;102394.67;1827924;77;22238;-73
2020/12/06 06:07:31;;;;;;;9.35;4.37;;;;;;;-6.51;73.89;102393.17;1834865;76;21052;-72
2020/12/06 06:10:06;;;;;;;7.53;3.98;;;;;;;-6.48;73.88;102398.61;1802710;77;21139;-71
2020/12/06 06:12:34;;;;;;;8.13;4.08;;;;;;;-6.46;73.80;102394.98;1842296;77;21127;-73
2020/12/06 06:15:03;;;;;;;8.95;4.00;;;;;;;-6.43;73.67;102401.28;1833421;76;21068;-73
2020/12/06 06:17:31;;;;;;;11.10;5.00;;;;;;;-6.42;73.64;102395.61;1822962;77;21563;-73
2020/12/06 06:20:01;;;;;;;8.80;4.47;;;;;;;-6.38;73.65;102397.10;1851912;76;21195;-72
2020/12/06 06:22:37;;;;;;;9.00;5.03;;;;;;;-6.31;73.50;102400.13;1804382;78;21148;-72
2020/12/06 06:25:05;;;;;;;10.20;4.70;;;;;;;-6.28;73.34;102403.36;1801331;78;21171;-72
2020/12/06 06:27:38;;;;;;;11.10;5.28;;;;;;;-6.25;73.18;102408.36;1796357;78;21174;-72
2020/12/06 06:30:09;;;;;;;8.48;4.72;;;;;;;-6.23;73.02;102411.67;1850206;77;21516;-72
2020/12/06 06:32:38;;;;;;;8.58;4.03;;;;;;;-6.17;72.96;102405.23;1803013;77;21211;-72
2020/12/06 06:35:07;;;;;;;10.58;5.30;;;;;;;-6.16;72.77;102405.12;1801068;78;21156;-72
2020/12/06 06:37:35;;;;;;;8.93;4.60;;;;;;;-6.13;72.75;102404.09;1810261;77;21056;-72
2020/12/06 06:40:08;;;;;;;8.88;4.65;;;;;;;-6.08;72.65;102402.03;1807634;77;21166;-72
2020/12/06 06:42:37;;;;;;;10.48;4.87;;;;;;;-6.04;72.47;102406.08;1817290;77;21361;-73
2020/12/06 06:45:11;;;;;;;8.95;4.55;;;;;;;-5.98;72.31;102408.75;1803417;77;21108;-72
2020/12/06 06:47:40;;;;;;;9.98;4.80;;;;;;;-5.94;72.26;102404.52;1807183;78;21152;-72
2020/12/06 06:50:11;;;;;;;8.78;4.30;;;;;;;-5.88;72.02;102408.45;1816113;78;21595;-72
2020/12/06 06:52:42;;;;;;;9.48;4.22;;;;;;;-5.83;71.81;102406.36;1818895;77;22601;-72
2020/12/06 06:55:09;;;;;;;8.45;4.33;;;;;;;-5.80;71.70;102406.63;1807816;76;21366;-71
2020/12/06 06:57:40;;;;;;;8.65;4.37;;;;;;;-5.75;71.45;102405.38;1815162;78;21112;-72
2020/12/06 07:00:07;;;;;;;8.15;3.83;;;;;;;-5.71;71.25;102408.61;1812869;78;21134;-72
2020/12/06 07:02:39;;;;;;;8.35;5.12;;;;;;;-5.67;71.23;102409.58;1812563;77;21215;-72
2020/12/06 07:05:21;;;;;;;9.18;4.10;;;;;;;-5.58;71.10;102413.81;1813465;78;21555;-71
2020/12/06 07:07:50;;;;;;;10.72;4.55;;;;;;;-5.53;70.65;102402.59;1802795;78;21197;-72
2020/12/06 07:10:27;;;;;;;9.78;4.87;;;;;;;-5.48;70.44;102401.34;1811545;76;21159;-73
2020/12/06 07:12:59;;;;;;;10.53;4.17;;;;;;;-5.41;70.21;102401.75;1816558;77;21189;-73
2020/12/06 07:15:27;;;;;;;8.05;4.47;;;;;;;-5.36;69.87;102396.20;1814629;77;21120;-71
2020/12/06 07:17:56;;;;;;;9.03;4.50;;;;;;;-5.31;69.51;102391.52;1817682;76;21335;-70
2020/12/06 07:20:26;;;;;;;9.63;4.35;;;;;;;-5.27;69.44;102398.99;1812660;76;21374;-71
2020/12/06 07:22:56;;;;;;;10.13;4.78;;;;;;;-5.25;69.08;102391.09;1822815;76;21157;-71
2020/12/06 07:25:24;;;;;;;8.75;4.10;;;;;;;-5.23;68.97;102395.73;1808646;76;21076;-71
2020/12/06 07:27:53;;;;;;;9.13;3.87;;;;;;;-5.18;68.93;102391.02;1814663;76;21181;-72
2020/12/06 07:30:22;;;;;;;9.28;4.45;;;;;;;-5.11;68.74;102397.45;1805573;77;21032;-70
2020/12/06 07:32:49;;;;;;;9.98;5.12;;;;;;;-5.03;68.41;102400.83;1784907;78;21352;-72
2020/12/06 07:35:19;;;;;;;10.72;5.42;;;;;;;-4.99;68.27;102399.66;1827563;77;21155;-71
2020/12/06 07:37:46;;;;;;;7.55;3.90;;;;;;;-4.93;68.21;102413.56;1819920;76;21148;-72
2020/12/06 07:40:13;;;;;;;7.97;4.17;;;;;;;-4.86;68.12;102416.08;1817752;78;21085;-73
2020/12/06 07:42:41;;;;;;;7.95;4.10;;;;;;;-4.75;68.15;102420.52;1810820;78;21175;-72
2020/12/06 07:45:08;;;;;;;8.93;4.10;;;;;;;-4.68;67.63;102419.12;1820126;77;21192;-71
2020/12/06 07:47:35;;;;;;;8.00;4.30;;;;;;;-4.67;67.30;102422.11;1815616;77;21149;-72
2020/12/06 07:50:06;;;;;;;9.93;4.10;;;;;;;-4.59;67.26;102426.28;1820433;78;21615;-71
2020/12/06 07:52:38;;;;;;;8.13;3.83;;;;;;;-4.53;66.86;102418.02;1827246;77;21158;-71
2020/12/06 07:55:09;;;;;;;9.98;4.33;;;;;;;-4.44;66.56;102421.73;1808881;78;21195;-73
2020/12/06 07:57:45;;;;;;;7.33;3.90;;;;;;;-4.44;66.56;102421.73;1838578;76;21933;-76
2020/12/06 08:00:21;;;;;;;9.90;4.92;;;;;;;-4.35;66.19;102421.03;1849660;77;21072;-73
2020/12/06 08:02:56;;;;;;;7.92;4.53;;;;;;;-4.30;66.35;102427.23;1814130;77;21522;-72
2020/12/06 08:05:27;;;;;;;9.10;4.72;;;;;;;-4.21;66.44;102421.78;1816719;78;21136;-73
2020/12/06 08:08:10;;;;;;;8.65;4.72;;;;;;;-4.11;66.39;102417.57;1850667;75;21136;-72
2020/12/06 08:10:40;;;;;;;8.93;4.70;;;;;;;-4.02;66.19;102418.98;1768153;78;21394;-71
2020/12/06 08:13:11;;;;;;;9.78;4.78;;;;;;;-3.93;65.99;102414.86;1818195;77;21164;-72
2020/12/06 08:15:38;;;;;;;9.00;5.10;;;;;;;-3.86;65.93;102416.53;1817841;76;21155;-72
2020/12/06 08:18:15;;;;;;;9.38;4.60;;;;;;;-3.81;65.63;102418.33;1808999;78;21226;-72
2020/12/06 08:20:53;;;;;;;7.97;4.35;;;;;;;-3.80;65.12;102416.89;1831767;78;21128;-71
2020/12/06 08:23:36;;;;;;;8.38;4.30;;;;;;;-3.78;64.91;102412.87;1817832;77;21359;-72
2020/12/06 08:26:05;;;;;;;8.63;4.47;;;;;;;-3.78;64.67;102417.62;1829699;78;21225;-73
2020/12/06 08:28:32;;;;;;;9.48;4.58;;;;;;;-3.78;64.52;102418.09;1820871;77;21641;-72
2020/12/06 08:31:00;;;;;;;10.82;4.30;;;;;;;-3.72;64.50;102421.52;1814806;77;22349;-71
2020/12/06 08:33:28;;;;;;;8.43;4.75;;;;;;;-3.71;64.18;102415.84;1813888;77;21633;-71
2020/12/06 08:35:56;;;;;;;8.03;4.33;;;;;;;-3.69;64.21;102416.06;1813550;78;21196;-71
2020/12/06 08:38:30;;;;;;;8.00;3.87;;;;;;;-3.67;63.82;102411.56;1813326;77;21168;-72
2020/12/06 08:41:08;;;;;;;13.53;5.00;;;;;;;-3.65;64.05;102421.43;1834105;78;21147;-71
2020/12/06 08:44:02;;;;;;;7.35;4.20;;;;;;;-3.59;64.19;102424.02;1827906;78;21227;-72
2020/12/06 08:46:32;;;;;;;10.23;4.70;;;;;;;-3.55;64.00;102422.86;1811605;78;21128;-73
2020/12/06 08:49:02;;;;;;;7.62;4.03;;;;;;;-3.51;63.66;102421.67;1822652;77;21356;-73
2020/12/06 08:51:37;;;;;;;7.83;4.05;;;;;;;-3.48;63.57;102410.16;1839396;78;21128;-73
2020/12/06 08:54:07;;;;;;;8.68;4.28;;;;;;;-3.45;63.32;102406.00;1829108;77;21195;-73
2020/12/06 08:56:39;;;;;;;9.53;4.35;;;;;;;-3.41;63.52;102399.58;1824625;78;21165;-73
2020/12/06 08:59:12;;;;;;;9.68;4.45;;;;;;;-3.33;63.40;102395.39;1822755;77;21161;-72
2020/12/06 09:02:22;;;;;;;8.33;3.95;;;;;;;-3.26;63.45;102391.83;1819065;78;21355;-74
2020/12/06 09:04:50;;;;;;;7.45;3.80;;;;;;;-3.20;63.15;102394.44;1674079;84;21473;-72
2020/12/06 09:07:18;;;;;;;8.65;5.12;;;;;;;-3.18;63.01;102399.08;1678555;84;21155;-72
2020/12/06 09:09:46;;;;;;;8.68;4.10;;;;;;;-3.14;62.91;102401.31;1691434;83;21183;-71
2020/12/06 09:12:13;;;;;;;12.40;4.83;;;;;;;-3.14;62.75;102397.39;1651129;85;21662;-71
2020/12/06 09:14:40;;;;;;;8.13;4.15;;;;;;;-3.13;62.70;102393.82;1656529;85;22363;-72
2020/12/06 09:17:08;;;;;;;9.60;5.03;;;;;;;-3.07;62.46;102402.48;1666832;84;21231;-71
2020/12/06 09:19:35;;;;;;;9.63;5.37;;;;;;;-3.01;62.63;102397.25;1667210;84;21217;-72
2020/12/06 09:22:02;;;;;;;7.95;4.45;;;;;;;-3.01;61.82;102397.25;1678084;84;21229;-70
2020/12/06 09:24:30;;;;;;;8.43;4.25;;;;;;;-3.03;61.93;102398.32;1668855;84;21157;-71
2020/12/06 09:26:57;;;;;;;8.43;4.47;;;;;;;-3.01;62.21;102397.73;1675632;85;21382;-70
2020/12/06 09:29:25;;;;;;;9.48;4.67;;;;;;;-2.96;62.41;102399.03;1677448;84;21239;-71
2020/12/06 09:31:53;;;;;;;11.33;5.05;;;;;;;-2.92;61.85;102395.70;1679143;84;21191;-71
2020/12/06 09:34:20;;;;;;;7.15;3.72;;;;;;;-2.93;61.78;102390.09;1676347;84;21124;-71
2020/12/06 09:36:48;;;;;;;9.55;4.58;;;;;;;-2.90;61.77;102394.59;1675133;84;21175;-71
2020/12/06 09:39:15;;;;;;;9.68;4.90;;;;;;;-2.90;61.67;102385.44;1666274;85;21382;-70
2020/12/06 09:41:46;;;;;;;8.80;4.85;;;;;;;-2.88;61.76;102387.95;1672469;84;21100;-71
2020/12/06 09:44:13;;;;;;;10.23;4.72;;;;;;;-2.85;61.80;102386.40;1676778;84;21195;-71
2020/12/06 09:46:40;;;;;;;9.10;5.15;;;;;;;-2.86;61.24;102388.67;1678317;84;21132;-70
2020/12/06 09:49:08;;;;;;;9.43;4.70;;;;;;;-2.87;61.24;102389.60;1672534;84;21132;-70
2020/12/06 09:51:35;;;;;;;8.80;4.28;;;;;;;-2.87;61.54;102389.60;1672003;85;21221;-71
2020/12/06 09:54:02;;;;;;;9.43;4.65;;;;;;;-2.80;61.50;102380.78;1673037;84;21180;-70
2020/12/06 09:56:31;;;;;;;9.53;5.05;;;;;;;-2.77;61.19;102377.92;1673720;84;21802;-70
2020/12/06 09:58:58;;;;;;;8.10;4.35;;;;;;;-2.76;61.23;102379.13;1686499;84;22607;-71
2020/12/06 10:01:26;;;;;;;9.75;5.40;;;;;;;-2.72;61.31;102375.30;1658414;84;21162;-70
2020/12/06 10:03:54;;;;;;;10.18;5.28;;;;;;;-2.68;61.23;102371.95;1694211;83;21233;-69
2020/12/06 10:06:25;;;;;;;9.00;4.42;;;;;;;-2.68;61.27;102367.55;1691951;83;21102;-69
2020/12/06 10:09:06;;;;;;;9.83;4.60;;;;;;;-2.58;61.26;102361.08;1818050;77;22683;-70
2020/12/06 10:11:33;;;;;;;9.33;4.72;;;;;;;-2.58;61.30;102362.39;1803831;77;21586;-71
2020/12/06 10:14:01;;;;;;;8.03;4.58;;;;;;;-2.54;61.17;102358.55;1824363;77;22368;-70
2020/12/06 10:16:28;;;;;;;9.23;4.72;;;;;;;-2.46;61.06;102359.25;1813132;77;21123;-70
2020/12/06 10:18:57;;;;;;;7.45;4.17;;;;;;;-2.44;61.14;102356.84;1821005;77;21179;-69
2020/12/06 10:21:24;;;;;;;8.58;4.20;;;;;;;-2.40;61.21;102350.41;1828138;77;21162;-70
2020/12/06 10:23:52;;;;;;;8.78;4.53;;;;;;;-2.33;60.99;102361.69;1812360;77;21434;-70
2020/12/06 10:26:19;;;;;;;10.90;5.15;;;;;;;-2.31;61.11;102354.52;1809529;77;21189;-70
2020/12/06 10:28:47;;;;;;;9.28;4.90;;;;;;;-2.26;61.37;102354.49;1812744;77;21143;-71
2020/12/06 10:31:19;;;;;;;9.00;4.90;;;;;;;-2.19;61.06;102352.19;1821672;77;21155;-69
2020/12/06 10:33:47;;;;;;;10.65;5.15;;;;;;;-2.14;61.24;102345.62;1808961;77;21164;-70
2020/12/06 10:36:15;;;;;;;8.15;4.72;;;;;;;-2.06;60.95;102344.13;1813424;77;21115;-70
2020/12/06 10:38:43;;;;;;;10.30;5.50;;;;;;;-2.04;60.42;102349.59;1807450;77;21191;-71
2020/12/06 10:41:11;;;;;;;10.08;4.80;;;;;;;-2.08;60.10;102336.88;1801278;77;21449;-71
2020/12/06 10:43:39;;;;;;;9.28;4.53;;;;;;;-2.12;59.93;102339.75;1804839;77;21721;-71
2020/12/06 10:46:09;;;;;;;9.60;4.78;;;;;;;-2.15;60.12;102335.26;1816928;77;21143;-71
2020/12/06 10:48:38;;;;;;;11.03;5.08;;;;;;;-2.15;60.15;102337.39;1816802;77;21399;-69
2020/12/06 10:51:05;;;;;;;9.33;4.72;;;;;;;-2.12;59.76;102341.06;1815193;77;22754;-70
2020/12/06 10:53:33;;;;;;;9.68;4.97;;;;;;;-2.10;60.01;102342.74;1814516;77;21180;-71
2020/12/06 10:56:02;;;;;;;8.78;5.03;;;;;;;-2.09;59.92;102341.77;1805985;77;21202;-71
2020/12/06 10:58:30;;;;;;;10.72;5.67;;;;;;;-2.10;59.80;102340.12;1816195;77;21182;-71
2020/12/06 11:00:57;;;;;;;9.13;5.05;;;;;;;-2.13;59.78;102333.35;1813217;77;21698;-72
2020/12/06 11:03:25;;;;;;;9.48;5.05;;;;;;;-2.16;59.78;102333.12;1814354;77;22286;-71
2020/12/06 11:05:53;;;;;;;10.58;4.45;;;;;;;-2.19;59.50;102329.45;1813314;77;21182;-72
2020/12/06 11:08:23;;;;;;;9.43;4.83;;;;;;;-2.25;59.10;102320.80;1812753;77;21167;-72
2020/12/06 11:10:51;;;;;;;8.55;4.12;;;;;;;-2.30;59.20;102321.69;1815200;77;21148;-73
2020/12/06 11:13:18;;;;;;;9.45;4.80;;;;;;;-2.33;59.10;102315.41;1814864;77;21175;-71
2020/12/06 11:15:45;;;;;;;9.50;5.35;;;;;;;-2.32;59.21;102315.74;1808408;77;22069;-71
2020/12/06 11:18:13;;;;;;;7.72;3.90;;;;;;;-2.33;58.82;102311.48;1814330;77;21167;-73
2020/12/06 11:20:40;;;;;;;8.93;4.65;;;;;;;-2.33;58.48;102318.02;1812906;77;21163;-72
2020/12/06 11:23:08;;;;;;;8.83;4.62;;;;;;;-2.33;58.75;102318.02;1813479;77;21669;-71
2020/12/06 11:25:37;;;;;;;8.38;4.47;;;;;;;-2.29;58.91;102317.28;1809857;77;21139;-72
2020/12/06 11:28:05;;;;;;;9.50;5.05;;;;;;;-2.28;58.55;102317.63;1808686;79;22280;-72
2020/12/06 11:30:32;;;;;;;9.48;4.75;;;;;;;-2.27;58.13;102319.27;1813025;77;21670;-71